Terminal Aerodrome Forecast
Issued by NWS San Angelo, TX

Home | Current Version | Previous Version | Text Only | Print | Product List | Glossary On
Versions: 1 2 3 4 5 6 7 8 9 10 11 12 13 14 15 16 17 18 19 20
015
FTUS44 KSJT 272330
TAFSJT
TAF
KSJT 272330Z 2800/2824 20009KT P6SM SCT025
     FM281000 20007KT 6SM BR BKN015
     FM281300 19005KT 4SM BR OVC010
     FM281600 23015G23KT P6SM BKN250=

USA.gov is the U.S. government's official web portal to all federal, state and local government web resources and services.